createdAt,value
2019-05-03T00:00:22.019Z,47.13
2019-05-03T00:03:06.631Z,42.97
2019-05-03T00:05:52.478Z,44.40
2019-05-03T00:08:21.793Z,54.33
2019-05-03T00:10:51.781Z,32.30
2019-05-03T00:13:21.893Z,30.70
2019-05-03T00:16:13.999Z,80.77
2019-05-03T00:18:43.314Z,96.23
2019-05-03T00:21:15.200Z,79.40
2019-05-03T00:23:44.440Z,43.77
2019-05-03T00:26:13.652Z,38.47
2019-05-03T00:28:42.756Z,26.60
2019-05-03T00:31:12.502Z,29.73
2019-05-03T00:33:44.005Z,45.47
2019-05-03T00:36:27.435Z,36.20
2019-05-03T00:39:01.934Z,31.83
2019-05-03T00:41:32.032Z,34.53
2019-05-03T00:44:04.331Z,30.00
2019-05-03T00:46:35.953Z,26.67
2019-05-03T00:49:05.032Z,27.83
2019-05-03T00:51:37.241Z,29.33
2019-05-03T00:54:07.634Z,29.63
2019-05-03T00:56:36.825Z,31.23
2019-05-03T00:59:05.835Z,30.70
2019-05-03T01:01:36.636Z,33.03
2019-05-03T01:04:05.681Z,31.50
2019-05-03T01:06:34.838Z,47.37
2019-05-03T01:09:06.984Z,36.77
2019-05-03T01:11:38.495Z,33.10
2019-05-03T01:14:07.572Z,48.43
2019-05-03T01:16:38.952Z,43.70
2019-05-03T01:19:08.242Z,35.60
2019-05-03T01:21:37.515Z,32.63
2019-05-03T01:24:07.037Z,36.27
2019-05-03T01:26:36.727Z,43.47
2019-05-03T01:29:06.531Z,40.70
2019-05-03T01:31:37.839Z,36.10
2019-05-03T01:34:06.750Z,37.53
2019-05-03T01:36:35.889Z,32.73
2019-05-03T01:39:06.344Z,33.13
2019-05-03T01:41:35.297Z,34.60
2019-05-03T01:44:04.562Z,38.40
2019-05-03T01:46:33.624Z,34.23
2019-05-03T01:49:27.089Z,44.83
2019-05-03T01:52:18.312Z,38.47
2019-05-03T01:54:47.190Z,34.90
2019-05-03T01:57:17.668Z,31.80
2019-05-03T01:59:46.716Z,30.97
2019-05-03T02:02:34.798Z,32.63
2019-05-03T02:05:22.445Z,34.13
2019-05-03T02:07:52.491Z,35.97
2019-05-03T02:10:22.677Z,33.80
2019-05-03T02:12:52.305Z,31.63
2019-05-03T02:15:22.166Z,31.97
2019-05-03T02:17:55.010Z,30.30
2019-05-03T02:20:23.988Z,32.10
2019-05-03T02:22:53.070Z,33.20
2019-05-03T02:25:22.192Z,33.30
2019-05-03T02:27:52.683Z,35.17
2019-05-03T02:30:24.953Z,36.60
2019-05-03T02:32:54.293Z,36.37
2019-05-03T02:35:23.311Z,38.90
2019-05-03T02:37:54.636Z,41.87
2019-05-03T02:40:25.346Z,38.67
2019-05-03T02:43:19.741Z,36.83
2019-05-03T02:46:01.144Z,37.83
2019-05-03T02:48:47.823Z,37.33
2019-05-03T02:51:16.889Z,33.20
2019-05-03T02:53:45.989Z,34.37
2019-05-03T02:56:21.967Z,33.57
2019-05-03T02:58:46.145Z,35.73
2019-05-03T03:01:16.313Z,35.77
2019-05-03T03:03:45.986Z,36.87
2019-05-03T03:06:15.695Z,35.03
2019-05-03T03:08:46.238Z,43.73
2019-05-03T03:11:19.371Z,47.37
2019-05-03T03:13:48.404Z,66.87
2019-05-03T03:16:20.678Z,41.30
2019-05-03T03:18:50.130Z,44.13
2019-05-03T03:21:21.794Z,86.17
2019-05-03T03:23:57.766Z,58.63
2019-05-03T03:26:37.651Z,45.50
2019-05-03T03:29:05.613Z,110.57
2019-05-03T03:31:58.085Z,53.23
2019-05-03T03:34:27.875Z,91.43
2019-05-03T03:37:03.758Z,47.50
2019-05-03T03:39:28.334Z,281.10
2019-05-03T03:41:57.600Z,89.07
2019-05-03T03:44:27.101Z,55.20
2019-05-03T03:46:57.925Z,84.17
2019-05-03T03:49:28.858Z,137.00
2019-05-03T03:52:00.421Z,112.73
2019-05-03T03:54:35.275Z,109.57
2019-05-03T03:57:07.893Z,219.80
2019-05-03T03:59:36.424Z,192.90
2019-05-03T04:02:05.952Z,275.43
2019-05-03T04:04:35.743Z,107.83
2019-05-03T04:07:06.618Z,145.57
2019-05-03T04:09:36.809Z,100.63
2019-05-03T04:12:06.296Z,111.97
2019-05-03T04:15:00.776Z,177.23
2019-05-03T04:17:58.062Z,74.13
2019-05-03T04:20:30.614Z,199.77
2019-05-03T04:22:59.599Z,172.53
2019-05-03T04:25:29.175Z,135.80
2019-05-03T04:27:58.205Z,148.00
2019-05-03T04:30:28.645Z,207.33
2019-05-03T04:32:57.682Z,150.00
2019-05-03T04:35:26.975Z,146.47
2019-05-03T04:37:56.205Z,129.47
2019-05-03T04:40:26.071Z,79.60
2019-05-03T04:42:55.785Z,42.33
2019-05-03T04:45:25.761Z,58.43
2019-05-03T04:47:56.037Z,26.77
2019-05-03T04:50:25.924Z,22.77
2019-05-03T04:52:56.667Z,18.17
2019-05-03T04:55:27.675Z,22.53
2019-05-03T04:57:56.644Z,19.23
2019-05-03T05:00:29.767Z,15.27
2019-05-03T05:03:00.032Z,14.97
2019-05-03T05:05:29.094Z,13.00
2019-05-03T05:07:59.185Z,12.77
2019-05-03T05:10:28.459Z,13.23
2019-05-03T05:12:58.673Z,12.57
2019-05-03T05:15:27.553Z,20.10
2019-05-03T05:18:16.022Z,10.57
2019-05-03T05:20:51.740Z,12.20
2019-05-03T05:23:21.760Z,12.47
2019-05-03T05:25:56.549Z,11.83
2019-05-03T05:28:48.984Z,11.03
2019-05-03T05:31:17.950Z,11.50
2019-05-03T05:33:47.726Z,12.17
2019-05-03T05:36:16.881Z,11.00
2019-05-03T05:38:45.847Z,11.23
2019-05-03T05:41:15.643Z,11.30
2019-05-03T05:43:44.855Z,11.33
2019-05-03T05:46:14.655Z,11.10
2019-05-03T05:48:49.421Z,12.03
2019-05-03T05:51:18.580Z,12.93
2019-05-03T05:53:50.779Z,12.43
2019-05-03T05:56:39.257Z,7.53
2019-05-03T05:59:14.972Z,5.30
2019-05-03T06:01:52.966Z,4.30
2019-05-03T06:04:21.896Z,4.50
2019-05-03T06:07:18.943Z,3.90
2019-05-03T06:09:58.409Z,3.07
2019-05-03T06:12:40.896Z,3.73
2019-05-03T06:15:17.303Z,3.57
2019-05-03T06:17:50.961Z,3.60
2019-05-03T06:20:41.916Z,3.60
2019-05-03T06:23:22.264Z,3.27
2019-05-03T06:25:51.424Z,3.37
2019-05-03T06:28:27.036Z,3.70
2019-05-03T06:31:06.309Z,3.97
2019-05-03T06:33:35.352Z,4.50
2019-05-03T06:36:04.949Z,4.00
2019-05-03T06:38:42.417Z,3.67
2019-05-03T06:41:11.375Z,3.80
2019-05-03T06:43:45.069Z,4.00
2019-05-03T06:46:16.440Z,3.93
2019-05-03T06:48:44.478Z,2.70
2019-05-03T06:51:17.856Z,3.30
2019-05-03T06:53:49.054Z,2.83
2019-05-03T06:56:19.323Z,3.07
2019-05-03T06:58:48.091Z,12.23
2019-05-03T07:01:29.150Z,3.20
2019-05-03T07:04:05.881Z,3.40
2019-05-03T07:06:44.995Z,2.90
2019-05-03T07:09:18.767Z,2.00
2019-05-03T07:11:47.764Z,2.33
2019-05-03T07:14:16.749Z,2.10
2019-05-03T07:16:45.701Z,2.27
2019-05-03T07:19:14.843Z,1.90
2019-05-03T07:21:44.659Z,3.17
2019-05-03T07:24:14.643Z,1.83
2019-05-03T07:26:44.788Z,2.10
2019-05-03T07:29:15.226Z,2.43
2019-05-03T07:31:44.843Z,3.10
2019-05-03T07:34:18.909Z,3.17
2019-05-03T07:36:47.882Z,2.43
2019-05-03T07:39:16.884Z,3.77
2019-05-03T07:41:45.883Z,2.60
2019-05-03T07:44:15.276Z,5.90
2019-05-03T07:46:49.706Z,5.77
2019-05-03T07:49:18.729Z,4.30
2019-05-03T07:51:47.737Z,8.90
2019-05-03T07:54:16.711Z,4.50
2019-05-03T07:56:54.896Z,3.43
2019-05-03T07:59:31.226Z,6.30
2019-05-03T08:02:00.178Z,5.13
2019-05-03T08:04:30.889Z,5.57
2019-05-03T08:06:59.946Z,8.13
2019-05-03T08:09:29.146Z,6.97
2019-05-03T08:11:58.149Z,5.50
2019-05-03T08:14:27.119Z,5.17
2019-05-03T08:16:58.975Z,5.00
2019-05-03T08:19:27.894Z,4.07
2019-05-03T08:21:59.694Z,5.37
2019-05-03T08:24:28.674Z,3.87
2019-05-03T08:26:57.854Z,9.23
2019-05-03T08:29:29.322Z,6.53
2019-05-03T08:32:35.884Z,4.17
2019-05-03T08:35:25.194Z,5.43
2019-05-03T08:37:57.309Z,9.10
2019-05-03T08:40:28.855Z,12.30
2019-05-03T08:42:57.792Z,4.10
2019-05-03T08:45:26.793Z,6.43
2019-05-03T08:47:55.913Z,8.57
2019-05-03T08:50:25.683Z,9.43
2019-05-03T08:52:55.763Z,5.53
2019-05-03T08:55:25.098Z,10.33
2019-05-03T08:57:55.115Z,4.97
2019-05-03T09:00:26.075Z,4.90
2019-05-03T09:02:55.112Z,4.97
2019-05-03T09:05:25.004Z,4.00
2019-05-03T09:07:54.919Z,5.73
2019-05-03T09:10:35.390Z,3.63
2019-05-03T09:13:06.548Z,3.23
2019-05-03T09:15:39.276Z,11.37
2019-05-03T09:18:08.437Z,5.23
2019-05-03T09:20:37.395Z,4.13
2019-05-03T09:23:06.355Z,10.07
2019-05-03T09:25:35.780Z,9.27
2019-05-03T09:28:05.387Z,12.47
2019-05-03T09:30:38.650Z,9.80
2019-05-03T09:33:09.195Z,4.67
2019-05-03T09:35:38.444Z,6.13
2019-05-03T09:38:09.761Z,18.70
2019-05-03T09:40:39.637Z,3.57
2019-05-03T09:43:08.585Z,8.27
2019-05-03T09:45:37.583Z,6.70
2019-05-03T09:48:07.984Z,5.73
2019-05-03T09:50:38.003Z,5.97
2019-05-03T09:53:09.016Z,3.30
2019-05-03T09:55:40.207Z,17.23
2019-05-03T09:58:09.192Z,4.13
2019-05-03T10:00:38.224Z,11.93
2019-05-03T10:03:09.446Z,5.70
2019-05-03T10:05:42.438Z,7.97
2019-05-03T10:08:11.414Z,5.80
2019-05-03T10:10:58.225Z,5.33
2019-05-03T10:13:27.425Z,4.47
2019-05-03T10:15:56.476Z,2.77
2019-05-03T10:18:25.670Z,2.50
2019-05-03T10:20:56.120Z,8.80
2019-05-03T10:23:38.534Z,13.30
2019-05-03T10:26:08.614Z,3.43
2019-05-03T10:28:38.240Z,3.00
2019-05-03T10:31:07.879Z,2.63
2019-05-03T10:33:52.364Z,3.10
2019-05-03T10:36:21.382Z,3.70
2019-05-03T10:38:50.421Z,16.43
2019-05-03T10:41:19.572Z,161.07
2019-05-03T10:43:48.811Z,4.50
2019-05-03T10:46:17.831Z,24.93
2019-05-03T10:48:49.942Z,8.43
2019-05-03T10:51:19.322Z,7.67
2019-05-03T10:53:55.218Z,3.40
2019-05-03T10:56:49.585Z,2.30
2019-05-03T10:59:19.790Z,3.53
2019-05-03T11:02:08.318Z,4.47
2019-05-03T11:04:37.436Z,4.13
2019-05-03T11:07:07.810Z,7.07
2019-05-03T11:09:48.539Z,2.50
2019-05-03T11:12:07.827Z,3.00
2019-05-03T11:14:36.862Z,3.60
2019-05-03T11:17:05.923Z,2.83
2019-05-03T11:19:35.172Z,2.47
2019-05-03T11:22:05.419Z,2.80
2019-05-03T11:24:39.473Z,3.73
2019-05-03T11:27:16.766Z,15.47
2019-05-03T11:29:45.827Z,7.90
2019-05-03T11:32:32.265Z,15.40
2019-05-03T11:35:16.642Z,24.00
2019-05-03T11:37:49.897Z,17.60
2019-05-03T11:40:22.057Z,10.37
2019-05-03T11:42:52.168Z,32.00
2019-05-03T11:45:24.499Z,22.20
2019-05-03T11:47:55.081Z,27.43
2019-05-03T11:50:25.332Z,37.37
2019-05-03T11:52:55.446Z,21.40
2019-05-03T11:55:26.807Z,70.10
2019-05-03T11:57:56.609Z,173.30
2019-05-03T12:00:31.269Z,46.73
2019-05-03T12:03:17.931Z,76.73
2019-05-03T12:05:50.891Z,35.43
2019-05-03T12:08:19.924Z,63.07
2019-05-03T12:10:57.188Z,50.57
2019-05-03T12:13:29.566Z,43.63
2019-05-03T12:15:58.923Z,20.83
2019-05-03T12:18:28.526Z,12.03
2019-05-03T12:21:02.143Z,3.83
2019-05-03T12:23:36.171Z,7.70
2019-05-03T12:26:09.890Z,15.47
2019-05-03T12:28:35.437Z,35.53
2019-05-03T12:31:04.875Z,18.40
2019-05-03T12:33:35.394Z,3.33
2019-05-03T12:36:05.605Z,4.60
2019-05-03T12:38:35.102Z,17.83
2019-05-03T12:41:05.567Z,2.80
2019-05-03T12:43:35.061Z,3.00
2019-05-03T12:46:07.662Z,3.70
2019-05-03T12:48:37.880Z,87.57
2019-05-03T12:51:07.713Z,19.13
2019-05-03T12:53:37.558Z,6.13
2019-05-03T12:56:11.250Z,8.30
2019-05-03T12:59:07.046Z,32.80
2019-05-03T13:01:55.714Z,15.73
2019-05-03T13:04:28.797Z,44.83
2019-05-03T13:07:07.316Z,2.33
2019-05-03T13:09:38.396Z,23.10
2019-05-03T13:12:09.033Z,4.10
2019-05-03T13:14:38.152Z,16.80
2019-05-03T13:17:07.580Z,3.10
2019-05-03T13:19:36.954Z,19.40
2019-05-03T13:22:06.625Z,9.17
2019-05-03T13:24:35.840Z,7.67
2019-05-03T13:27:08.796Z,4.27
2019-05-03T13:29:38.336Z,27.27
2019-05-03T13:32:07.586Z,36.37
2019-05-03T13:34:37.291Z,5.27
2019-05-03T13:37:06.709Z,18.07
2019-05-03T13:39:36.170Z,12.67
2019-05-03T13:42:06.851Z,5.93
2019-05-03T13:44:38.648Z,19.47
2019-05-03T13:47:07.841Z,13.77
2019-05-03T13:49:37.171Z,4.93
2019-05-03T13:52:07.045Z,5.97
2019-05-03T13:54:36.717Z,10.63
2019-05-03T13:57:06.479Z,3.00
2019-05-03T13:59:35.804Z,15.83
2019-05-03T14:02:15.354Z,16.50
2019-05-03T14:04:52.548Z,15.87
2019-05-03T14:07:15.190Z,2.63
2019-05-03T14:09:45.325Z,6.40
2019-05-03T14:12:15.715Z,3.73
2019-05-03T14:14:56.461Z,13.90
2019-05-03T14:17:29.760Z,4.97
2019-05-03T14:20:22.526Z,4.33
2019-05-03T14:22:52.705Z,3.03
2019-05-03T14:25:24.706Z,2.40
2019-05-03T14:27:55.658Z,2.60
2019-05-03T14:30:25.431Z,2.73
2019-05-03T14:32:55.755Z,3.93
2019-05-03T14:35:28.875Z,2.40
2019-05-03T14:37:58.578Z,2.67
2019-05-03T14:40:28.454Z,7.57
2019-05-03T14:42:58.446Z,8.50
2019-05-03T14:45:28.636Z,15.57
2019-05-03T14:47:58.246Z,11.80
2019-05-03T14:50:30.281Z,2.73
2019-05-03T14:53:00.110Z,2.70
2019-05-03T14:55:41.226Z,2.57
2019-05-03T14:58:35.159Z,1.90
2019-05-03T15:01:12.426Z,1.90
2019-05-03T15:03:41.549Z,4.83
2019-05-03T15:06:10.851Z,7.10
2019-05-03T15:08:39.868Z,5.23
2019-05-03T15:11:09.168Z,5.90
2019-05-03T15:13:38.707Z,5.23
2019-05-03T15:16:08.164Z,6.83
2019-05-03T15:18:37.829Z,9.73
2019-05-03T15:21:06.842Z,3.37
2019-05-03T15:23:35.947Z,2.90
2019-05-03T15:26:05.248Z,2.63
2019-05-03T15:28:37.898Z,2.70
2019-05-03T15:31:06.997Z,5.43
2019-05-03T15:33:36.015Z,3.30
2019-05-03T15:36:05.146Z,5.37
2019-05-03T15:38:36.515Z,5.97
2019-05-03T15:41:05.631Z,3.07
2019-05-03T15:43:57.060Z,4.17
2019-05-03T15:47:09.383Z,5.60
2019-05-03T15:49:38.111Z,5.77
2019-05-03T15:52:07.316Z,6.30
2019-05-03T15:54:36.295Z,3.57
2019-05-03T15:57:05.445Z,8.87
2019-05-03T15:59:34.902Z,3.83
2019-05-03T16:02:04.641Z,2.53
2019-05-03T16:04:35.607Z,4.43
2019-05-03T16:07:06.233Z,13.40
2019-05-03T16:09:35.299Z,3.50
2019-05-03T16:12:05.100Z,2.70
2019-05-03T16:14:35.021Z,2.77
2019-05-03T16:17:04.507Z,2.20
2019-05-03T16:19:35.336Z,2.87
2019-05-03T16:22:04.877Z,2.60
2019-05-03T16:24:35.522Z,2.50
2019-05-03T16:27:16.923Z,2.20
2019-05-03T16:29:46.211Z,2.20
2019-05-03T16:32:15.841Z,2.90
2019-05-03T16:34:46.092Z,3.47
2019-05-03T16:37:15.235Z,2.60
2019-05-03T16:39:45.433Z,2.93
2019-05-03T16:42:17.450Z,2.73
2019-05-03T16:44:46.645Z,3.50
2019-05-03T16:47:16.733Z,3.20
2019-05-03T16:49:48.847Z,2.97
2019-05-03T16:52:18.141Z,4.57
2019-05-03T16:54:47.481Z,22.63
2019-05-03T16:57:17.513Z,37.83
2019-05-03T16:59:46.965Z,10.40
2019-05-03T17:02:17.386Z,5.50
2019-05-03T17:05:02.607Z,2.97
2019-05-03T17:07:36.227Z,4.53
2019-05-03T17:10:15.488Z,3.83
2019-05-03T17:12:45.441Z,5.87
2019-05-03T17:15:15.126Z,3.83
2019-05-03T17:17:45.157Z,8.03
2019-05-03T17:20:16.537Z,11.53
2019-05-03T17:22:46.417Z,5.47
2019-05-03T17:25:17.124Z,9.53
2019-05-03T17:27:49.397Z,10.53
2019-05-03T17:30:21.670Z,5.33
2019-05-03T17:32:50.768Z,24.13
2019-05-03T17:35:22.864Z,18.90
2019-05-03T17:37:51.978Z,9.07
2019-05-03T17:40:34.742Z,6.73
2019-05-03T17:43:14.658Z,9.03
2019-05-03T17:45:47.161Z,6.97
2019-05-03T17:48:19.944Z,10.77
2019-05-03T17:50:49.132Z,15.43
2019-05-03T17:53:54.554Z,7.07
2019-05-03T17:56:32.128Z,12.20
2019-05-03T17:59:26.168Z,11.97
2019-05-03T18:02:13.095Z,14.27
2019-05-03T18:05:05.279Z,17.30
2019-05-03T18:07:54.184Z,14.93
2019-05-03T18:10:27.565Z,14.60
2019-05-03T18:12:56.700Z,12.53
2019-05-03T18:15:26.268Z,64.30
2019-05-03T18:17:55.454Z,21.03
2019-05-03T18:20:25.583Z,12.80
2019-05-03T18:22:54.906Z,8.83
2019-05-03T18:25:26.742Z,14.97
2019-05-03T18:27:55.967Z,15.27
2019-05-03T18:30:25.080Z,15.33
2019-05-03T18:32:55.760Z,9.20
2019-05-03T18:35:28.506Z,15.97
2019-05-03T18:38:00.928Z,11.37
2019-05-03T18:40:31.622Z,11.20
2019-05-03T18:43:06.150Z,21.70
2019-05-03T18:45:54.586Z,9.10
2019-05-03T18:48:26.310Z,15.23
2019-05-03T18:50:56.048Z,352.53
2019-05-03T18:53:25.247Z,116.80
2019-05-03T18:55:55.220Z,108.57
2019-05-03T18:58:24.521Z,62.37
2019-05-03T19:00:54.887Z,266.33
2019-05-03T19:03:25.152Z,82.87
2019-05-03T19:05:57.200Z,86.40
2019-05-03T19:08:49.443Z,94.80
2019-05-03T19:11:36.785Z,186.30
2019-05-03T19:14:07.999Z,115.53
2019-05-03T19:17:05.090Z,174.03
2019-05-03T19:19:44.666Z,108.27
2019-05-03T19:22:15.383Z,101.03
2019-05-03T19:24:44.590Z,154.23
2019-05-03T19:27:14.400Z,133.10
2019-05-03T19:29:47.017Z,71.13
2019-05-03T19:32:15.999Z,68.67
2019-05-03T19:34:50.691Z,116.90
2019-05-03T19:37:18.516Z,105.17
2019-05-03T19:39:48.014Z,172.30
2019-05-03T19:42:18.849Z,93.67
2019-05-03T19:44:50.308Z,116.80
2019-05-03T19:47:19.467Z,55.87
2019-05-03T19:49:48.496Z,42.50
2019-05-03T19:52:21.007Z,30.27
2019-05-03T19:54:49.992Z,71.20
2019-05-03T19:57:21.873Z,37.27
2019-05-03T19:59:52.116Z,44.13
2019-05-03T20:02:37.671Z,40.40
2019-05-03T20:05:20.670Z,54.27
2019-05-03T20:08:21.183Z,152.03
2019-05-03T20:10:51.906Z,84.83
2019-05-03T20:13:31.925Z,45.60
2019-05-03T20:15:52.009Z,41.13
2019-05-03T20:18:24.108Z,31.03
2019-05-03T20:20:55.182Z,59.43
2019-05-03T20:23:25.091Z,70.83
2019-05-03T20:25:54.656Z,35.97
2019-05-03T20:28:24.715Z,31.77
2019-05-03T20:30:54.535Z,27.00
2019-05-03T20:33:24.591Z,23.13
2019-05-03T20:35:56.050Z,23.13
2019-05-03T20:38:26.294Z,22.80
2019-05-03T20:40:57.330Z,25.40
2019-05-03T20:44:00.447Z,18.10
2019-05-03T20:46:36.024Z,21.83
2019-05-03T20:49:07.568Z,27.07
2019-05-03T20:51:40.363Z,28.27
2019-05-03T20:54:09.458Z,18.63
2019-05-03T20:56:39.622Z,14.87
2019-05-03T20:59:08.634Z,58.97
2019-05-03T21:01:37.663Z,41.23
2019-05-03T21:04:06.932Z,48.50
2019-05-03T21:06:39.135Z,37.30
2019-05-03T21:09:08.376Z,29.33
2019-05-03T21:11:37.416Z,22.17
2019-05-03T21:14:06.366Z,64.13
2019-05-03T21:16:54.508Z,35.63
2019-05-03T21:19:47.091Z,40.37
2019-05-03T21:22:25.477Z,27.13
2019-05-03T21:25:00.389Z,31.43
2019-05-03T21:27:29.569Z,28.87
2019-05-03T21:29:59.614Z,38.60
2019-05-03T21:32:28.904Z,34.27
2019-05-03T21:35:01.186Z,31.23
2019-05-03T21:37:34.771Z,27.07
2019-05-03T21:40:05.154Z,20.30
2019-05-03T21:42:35.052Z,24.20
2019-05-03T21:45:04.705Z,21.70
2019-05-03T21:47:46.093Z,30.77
2019-05-03T21:50:19.069Z,22.30
2019-05-03T21:52:48.208Z,17.67
2019-05-03T21:55:18.378Z,16.93
2019-05-03T21:57:47.420Z,14.93
2019-05-03T22:00:19.248Z,13.33
2019-05-03T22:02:49.716Z,12.37
2019-05-03T22:05:20.021Z,11.63
2019-05-03T22:07:49.043Z,10.83
2019-05-03T22:10:18.208Z,13.77
2019-05-03T22:12:47.808Z,15.97
2019-05-03T22:15:31.641Z,19.40
2019-05-03T22:18:15.143Z,14.83
2019-05-03T22:21:05.717Z,15.17
2019-05-03T22:24:04.607Z,12.03
2019-05-03T22:26:55.110Z,14.30
2019-05-03T22:29:25.541Z,14.77
2019-05-03T22:31:57.916Z,15.13
2019-05-03T22:34:31.112Z,16.93
2019-05-03T22:37:00.028Z,16.97
2019-05-03T22:39:31.948Z,21.33
2019-05-03T22:42:01.012Z,19.43
2019-05-03T22:44:30.044Z,19.60
2019-05-03T22:46:59.267Z,21.23
2019-05-03T22:49:28.328Z,22.00
2019-05-03T22:51:57.356Z,21.43
2019-05-03T22:54:26.348Z,21.10
2019-05-03T22:56:56.555Z,22.20
2019-05-03T22:59:25.566Z,20.60
2019-05-03T23:01:57.573Z,20.63
2019-05-03T23:04:26.628Z,20.33
2019-05-03T23:06:55.876Z,16.87
2019-05-03T23:09:25.024Z,16.67
2019-05-03T23:11:55.224Z,15.27
2019-05-03T23:14:25.546Z,15.00
2019-05-03T23:16:55.002Z,14.90
2019-05-03T23:19:24.209Z,15.27
2019-05-03T23:22:12.363Z,15.63
2019-05-03T23:24:41.335Z,16.87
2019-05-03T23:27:10.363Z,18.50
2019-05-03T23:29:39.332Z,18.33
2019-05-03T23:32:08.458Z,18.17
2019-05-03T23:34:37.619Z,18.30
2019-05-03T23:37:06.683Z,20.93
2019-05-03T23:39:35.691Z,18.33
2019-05-03T23:42:05.438Z,23.93
2019-05-03T23:44:35.172Z,24.70
2019-05-03T23:47:14.533Z,28.77
2019-05-03T23:49:44.591Z,23.00
2019-05-03T23:52:35.950Z,19.80
2019-05-03T23:55:29.503Z,20.33
2019-05-03T23:57:59.368Z,18.67
